Terminal Aerodrome Forecast
Issued by NWS

Home | Current Version | Previous Version | Text Only | Print | Product List | Glossary On
Versions: 1 2 3 4 5 6 7 8 9 10 11 12 13 14 15 16 17 18 19 20 21 22 23 24 25 26 27 28 29
000
FTUS43 KDLH 270800 AAA
TAFBRD
TAF AMD
KBRD 270830Z 2709/2806 VRB02KT P6SM BKN045
      TEMPO 2709/2711 2SM BR
     FM271100 28005KT 5SM BR SCT015 SCT045
      TEMPO 2711/2713 3/4SM BR
     FM271400 19005KT P6SM FEW040=

USA.gov is the U.S. government's official web portal to all federal, state and local government web resources and services.